Time;durP1;ratioP1;P1;durP2;ratioP2;P2;SDS_P1;SDS_P2;PMS_P1;PMS_P2;Temp;Humidity;BMP_temperature;BMP_pressure;BME280_temperature;BME280_humidity;BME280_pressure;Samples;Min_cycle;Max_cycle;Signal;HPM_P1;HPM_P2
2023/01/19 00:00:09;;;;;;;16.25;14.55;;;2.60;99.90;;;;;;5074793;28;20485;-37
2023/01/19 00:02:36;;;;;;;16.73;14.90;;;2.60;99.90;;;;;;5057921;28;20049;-37
2023/01/19 00:05:02;;;;;;;16.77;13.27;;;2.50;99.90;;;;;;5074763;28;20445;-37
2023/01/19 00:07:31;;;;;;;16.30;14.35;;;2.50;99.90;;;;;;5075255;28;20238;-37
2023/01/19 00:09:57;;;;;;;17.48;14.73;;;2.50;99.90;;;;;;5074764;28;20040;-37
2023/01/19 00:12:24;;;;;;;16.88;12.90;;;2.50;99.90;;;;;;5074262;28;20507;-37
2023/01/19 00:14:49;;;;;;;17.15;14.15;;;2.50;99.90;;;;;;5075596;28;20028;-40
2023/01/19 00:17:15;;;;;;;15.45;13.30;;;2.50;99.90;;;;;;5083227;22;20051;-39
2023/01/19 00:19:41;;;;;;;13.77;11.25;;;2.50;99.90;;;;;;5057027;28;20067;-39
2023/01/19 00:22:07;;;;;;;13.80;11.40;;;2.50;99.90;;;;;;5067873;28;20109;-39
2023/01/19 00:24:32;;;;;;;11.40;9.38;;;2.50;99.90;;;;;;5076572;28;20032;-39
2023/01/19 00:27:00;;;;;;;13.00;11.07;;;2.50;99.90;;;;;;5075761;28;20046;-39
2023/01/19 00:29:29;;;;;;;10.93;9.82;;;2.50;99.90;;;;;;5065981;28;20119;-39
2023/01/19 00:31:55;;;;;;;11.35;9.68;;;2.50;99.90;;;;;;5064243;28;20035;-39
2023/01/19 00:34:21;;;;;;;10.68;9.18;;;2.50;99.90;;;;;;5076131;28;20443;-39
2023/01/19 00:36:46;;;;;;;9.82;8.85;;;2.50;99.90;;;;;;5075750;28;20519;-39
2023/01/19 00:39:12;;;;;;;8.57;7.63;;;2.50;99.90;;;;;;5053708;28;20127;-39
2023/01/19 00:44:22;;;;;;;;;;;2.50;99.90;;;;;;5094084;28;20055;-39
2023/01/19 00:46:47;;;;;;;7.30;6.13;;;2.40;99.90;;;;;;5074734;28;19916;-39
2023/01/19 00:49:13;;;;;;;6.00;5.40;;;2.40;99.90;;;;;;5071627;28;20040;-39
2023/01/19 00:51:39;;;;;;;9.32;7.63;;;2.40;99.90;;;;;;5074787;28;20121;-39
2023/01/19 00:54:07;;;;;;;9.25;7.95;;;2.30;99.90;;;;;;5072285;28;20036;-38
2023/01/19 00:56:34;;;;;;;8.32;7.35;;;2.30;99.90;;;;;;5068452;28;20043;-39
2023/01/19 00:58:59;;;;;;;8.52;7.70;;;2.30;99.90;;;;;;5075867;28;20044;-39
2023/01/19 01:01:25;;;;;;;9.30;8.35;;;2.30;99.90;;;;;;5075824;28;20050;-40
2023/01/19 01:03:52;;;;;;;9.63;8.73;;;2.20;99.90;;;;;;5073586;28;20043;-40
2023/01/19 01:06:19;;;;;;;10.75;9.73;;;2.20;99.90;;;;;;5075159;28;20035;-40
2023/01/19 01:08:45;;;;;;;10.90;9.82;;;2.20;99.90;;;;;;5068543;28;20400;-40
2023/01/19 01:11:10;;;;;;;12.23;10.93;;;2.20;99.90;;;;;;5075452;28;20032;-40
2023/01/19 01:13:36;;;;;;;14.05;12.55;;;2.10;99.90;;;;;;5068883;28;20443;-41
2023/01/19 01:16:02;;;;;;;14.05;12.48;;;2.10;99.90;;;;;;5093939;28;20403;-40
2023/01/19 01:18:28;;;;;;;14.43;13.02;;;2.10;99.90;;;;;;5075498;28;20102;-40
2023/01/19 01:21:05;;;;;;;14.82;13.23;;;2.10;99.90;;;;;;5065863;28;20072;-40
2023/01/19 01:23:31;;;;;;;15.68;13.65;;;2.00;99.90;;;;;;5075254;28;20097;-41
2023/01/19 01:25:57;;;;;;;16.85;14.70;;;2.00;99.90;;;;;;5076011;28;20554;-38
2023/01/19 01:28:23;;;;;;;17.10;14.60;;;2.00;99.90;;;;;;5076884;28;20044;-39
2023/01/19 01:30:53;;;;;;;17.20;14.73;;;2.00;99.90;;;;;;5076982;28;20157;-38
2023/01/19 01:33:19;;;;;;;16.88;14.93;;;2.00;99.90;;;;;;5069592;28;20044;-37
2023/01/19 01:35:44;;;;;;;17.95;15.77;;;2.00;99.90;;;;;;5063374;28;20036;-39
2023/01/19 01:38:10;;;;;;;18.50;16.17;;;2.00;99.90;;;;;;5063300;28;20393;-39
2023/01/19 01:40:39;;;;;;;18.83;16.35;;;2.00;99.90;;;;;;5075269;28;20123;-37
2023/01/19 01:43:13;;;;;;;20.45;17.45;;;2.00;99.90;;;;;;5075210;28;20039;-37
2023/01/19 01:45:40;;;;;;;19.13;15.85;;;2.00;99.90;;;;;;5057708;28;20036;-37
2023/01/19 01:48:34;;;;;;;19.52;15.90;;;2.00;99.90;;;;;;5093441;28;20101;-37
2023/01/19 01:51:24;;;;;;;19.05;14.88;;;2.00;99.90;;;;;;5068009;28;20089;-38
2023/01/19 01:54:15;;;;;;;19.77;16.38;;;2.00;99.90;;;;;;5074752;28;20071;-37
2023/01/19 01:56:47;;;;;;;17.73;15.07;;;2.00;99.90;;;;;;5066967;28;20048;-37
2023/01/19 01:59:24;;;;;;;19.17;16.35;;;2.00;99.90;;;;;;5074767;28;20485;-37
2023/01/19 02:04:56;;;;;;;23.02;17.17;;;2.00;99.90;;;;;;5085569;28;20050;-37
2023/01/19 02:13:20;;;;;;;24.40;18.73;;;2.10;99.90;;;;;;5092695;28;20047;-37
2023/01/19 02:15:51;;;;;;;23.48;18.20;;;2.10;99.90;;;;;;5070430;28;20481;-37
2023/01/19 02:18:18;;;;;;;23.05;18.48;;;2.10;99.90;;;;;;5074789;28;20523;-37
2023/01/19 02:21:11;;;;;;;24.42;19.58;;;2.10;99.90;;;;;;5069894;28;20039;-37
2023/01/19 02:23:39;;;;;;;23.08;17.83;;;2.10;99.90;;;;;;5063276;28;20048;-37
2023/01/19 02:26:08;;;;;;;21.85;17.25;;;2.10;99.90;;;;;;5073799;28;20036;-37
2023/01/19 02:28:37;;;;;;;21.27;17.73;;;2.10;99.90;;;;;;5064130;28;20087;-37
2023/01/19 02:31:04;;;;;;;21.27;17.63;;;2.10;99.90;;;;;;5064030;28;20064;-37
2023/01/19 02:33:29;;;;;;;23.67;18.08;;;2.20;99.90;;;;;;5073829;28;20111;-37
2023/01/19 02:35:56;;;;;;;23.35;17.45;;;2.20;99.90;;;;;;5072808;28;20123;-37
2023/01/19 02:38:24;;;;;;;20.90;16.63;;;2.20;99.90;;;;;;5070487;28;20044;-37
2023/01/19 02:40:52;;;;;;;22.70;16.15;;;2.20;99.90;;;;;;5056026;28;20043;-37
2023/01/19 02:43:18;;;;;;;20.02;15.68;;;2.20;99.90;;;;;;5067676;28;20385;-37
2023/01/19 02:45:45;;;;;;;21.80;16.80;;;2.20;99.90;;;;;;5072432;28;20115;-37
2023/01/19 02:48:11;;;;;;;22.73;17.35;;;2.20;99.90;;;;;;5073853;28;20483;-38
2023/01/19 02:50:48;;;;;;;21.52;16.83;;;2.20;99.90;;;;;;5075007;28;20044;-41
2023/01/19 02:53:52;;;;;;;23.60;17.33;;;2.20;99.90;;;;;;5075001;28;20024;-38
2023/01/19 02:56:18;;;;;;;22.83;18.08;;;2.30;99.90;;;;;;5075020;28;20051;-38
2023/01/19 02:58:58;;;;;;;24.13;18.17;;;2.30;99.90;;;;;;5073997;28;20044;-39
2023/01/19 03:01:34;;;;;;;24.85;18.95;;;2.30;99.90;;;;;;5075824;28;20050;-39
2023/01/19 03:04:13;;;;;;;27.83;20.65;;;2.20;99.90;;;;;;5072220;28;20044;-39
2023/01/19 03:06:48;;;;;;;26.35;20.08;;;2.30;99.90;;;;;;5068405;28;20036;-39
2023/01/19 03:09:45;;;;;;;27.23;21.90;;;2.30;99.90;;;;;;5069027;28;20046;-38
2023/01/19 03:12:22;;;;;;;23.52;17.42;;;2.30;99.90;;;;;;5069045;28;20043;-39
2023/01/19 03:14:51;;;;;;;28.25;21.60;;;2.30;99.90;;;;;;5075035;28;20032;-39
2023/01/19 03:17:18;;;;;;;26.35;19.75;;;2.30;99.90;;;;;;5092868;28;20040;-38
2023/01/19 03:19:48;;;;;;;25.85;20.63;;;2.30;99.90;;;;;;5074739;28;20097;-38
2023/01/19 03:22:21;;;;;;;25.70;20.40;;;2.30;99.90;;;;;;5070705;28;20044;-39
2023/01/19 03:24:48;;;;;;;24.10;19.10;;;2.30;99.90;;;;;;5073810;28;20505;-41
2023/01/19 03:27:24;;;;;;;28.50;20.13;;;2.30;99.90;;;;;;5075236;28;20025;-37
2023/01/19 03:29:54;;;;;;;25.98;20.30;;;2.30;99.90;;;;;;5075191;28;20036;-37
2023/01/19 03:32:23;;;;;;;24.40;19.50;;;2.20;99.90;;;;;;5074705;28;20063;-37
2023/01/19 03:34:51;;;;;;;25.15;19.83;;;2.30;99.90;;;;;;5074690;28;20527;-37
2023/01/19 03:37:20;;;;;;;22.98;17.77;;;2.30;99.90;;;;;;5074362;28;20054;-37
2023/01/19 03:39:46;;;;;;;23.48;18.25;;;2.20;99.90;;;;;;5074519;28;20435;-37
2023/01/19 03:42:14;;;;;;;24.77;19.25;;;2.20;99.90;;;;;;5074648;28;20047;-37
2023/01/19 03:44:42;;;;;;;26.90;19.02;;;2.20;99.90;;;;;;5074756;28;20094;-37
2023/01/19 03:47:12;;;;;;;22.25;18.30;;;2.20;99.90;;;;;;5074518;28;20028;-37
2023/01/19 03:49:42;;;;;;;22.17;17.75;;;2.20;99.90;;;;;;5074412;28;20042;-37
2023/01/19 03:52:08;;;;;;;23.00;18.38;;;2.20;99.90;;;;;;5068602;28;20117;-39
2023/01/19 03:54:34;;;;;;;22.75;19.13;;;2.20;99.90;;;;;;5060576;28;20473;-38
2023/01/19 03:57:00;;;;;;;23.25;17.55;;;2.20;99.90;;;;;;5074079;28;20580;-39
2023/01/19 03:59:26;;;;;;;21.90;16.67;;;2.20;99.90;;;;;;5069968;28;20118;-38
2023/01/19 04:01:51;;;;;;;53.97;31.20;;;2.20;99.90;;;;;;5073523;28;20040;-38
2023/01/19 04:04:17;;;;;;;42.55;27.50;;;2.10;99.90;;;;;;5060780;28;20485;-38
2023/01/19 04:06:43;;;;;;;36.92;23.90;;;2.10;99.90;;;;;;5072096;28;20054;-38
2023/01/19 04:09:09;;;;;;;28.65;20.35;;;2.10;99.90;;;;;;5073502;28;20055;-39
2023/01/19 04:11:34;;;;;;;30.40;19.73;;;2.10;99.90;;;;;;5056675;28;20511;-39
2023/01/19 04:14:00;;;;;;;34.55;24.15;;;2.10;99.90;;;;;;5073448;28;20043;-39
2023/01/19 04:16:26;;;;;;;37.05;23.30;;;2.10;99.90;;;;;;5073208;28;20492;-38
2023/01/19 04:18:52;;;;;;;22.70;16.10;;;2.10;99.90;;;;;;5073613;28;20086;-41
2023/01/19 04:21:19;;;;;;;22.23;16.08;;;2.10;99.90;;;;;;5076771;28;20036;-39
2023/01/19 04:23:45;;;;;;;23.52;16.55;;;2.10;99.90;;;;;;5077048;28;20032;-39
2023/01/19 04:26:11;;;;;;;21.88;15.35;;;2.10;99.90;;;;;;5055743;28;20079;-39
2023/01/19 04:28:37;;;;;;;36.72;23.48;;;2.10;99.90;;;;;;5076782;28;20127;-39
2023/01/19 04:31:04;;;;;;;26.98;18.15;;;2.00;99.90;;;;;;5068716;28;20094;-38
2023/01/19 04:33:30;;;;;;;24.83;18.17;;;2.00;99.90;;;;;;5073693;28;20440;-38
2023/01/19 04:35:56;;;;;;;24.70;17.33;;;2.00;99.90;;;;;;5077123;28;20067;-38
2023/01/19 04:38:23;;;;;;;24.05;17.48;;;1.90;99.90;;;;;;5076952;28;20047;-39
2023/01/19 04:40:51;;;;;;;24.27;17.00;;;2.00;99.90;;;;;;5076634;28;20040;-39
2023/01/19 04:43:20;;;;;;;16.08;13.02;;;1.90;99.90;;;;;;5076581;28;20046;-39
2023/01/19 04:45:47;;;;;;;19.88;15.32;;;1.90;99.90;;;;;;5076562;28;20036;-38
2023/01/19 04:48:14;;;;;;;30.38;20.92;;;1.90;99.90;;;;;;5076503;28;20044;-38
2023/01/19 04:50:40;;;;;;;42.05;30.38;;;1.90;99.90;;;;;;5076573;28;20032;-38
2023/01/19 04:53:07;;;;;;;24.30;17.10;;;1.90;99.90;;;;;;5074677;28;20035;-38
2023/01/19 04:55:32;;;;;;;18.00;13.38;;;1.90;99.90;;;;;;5076646;28;20047;-38
2023/01/19 04:57:58;;;;;;;23.67;16.80;;;1.90;99.90;;;;;;5076296;28;20492;-39
2023/01/19 05:00:25;;;;;;;22.90;15.70;;;1.90;99.90;;;;;;5059418;28;20040;-38
2023/01/19 05:02:51;;;;;;;19.00;14.32;;;2.00;99.90;;;;;;5076318;28;20082;-38
2023/01/19 05:05:17;;;;;;;25.45;17.70;;;2.00;99.90;;;;;;5076248;28;20047;-39
2023/01/19 05:07:43;;;;;;;25.95;17.48;;;2.00;99.90;;;;;;5059342;28;20404;-39
2023/01/19 05:10:10;;;;;;;31.63;19.75;;;2.00;99.90;;;;;;5063702;28;20083;-39
2023/01/19 05:12:36;;;;;;;34.08;22.27;;;2.00;99.90;;;;;;5077159;28;20032;-39
2023/01/19 05:15:03;;;;;;;33.65;22.17;;;2.00;99.90;;;;;;5075718;28;20040;-39
2023/01/19 05:17:29;;;;;;;32.80;21.40;;;2.00;99.90;;;;;;5072467;28;20067;-39
2023/01/19 05:19:54;;;;;;;39.15;22.05;;;2.10;99.90;;;;;;5068815;28;20032;-39
2023/01/19 05:22:20;;;;;;;35.30;24.42;;;2.00;99.90;;;;;;5068530;28;20046;-39
2023/01/19 05:24:46;;;;;;;34.35;21.45;;;2.00;99.90;;;;;;5053953;28;20040;-39
2023/01/19 05:27:12;;;;;;;30.00;21.05;;;2.00;99.90;;;;;;5073996;28;20386;-40
2023/01/19 05:29:37;;;;;;;35.08;21.42;;;2.10;99.90;;;;;;5054579;28;20044;-39
2023/01/19 05:32:03;;;;;;;34.75;21.33;;;2.10;99.90;;;;;;5067703;28;20040;-40
2023/01/19 05:34:29;;;;;;;38.42;21.67;;;2.10;99.90;;;;;;5070111;28;20051;-40
2023/01/19 05:36:55;;;;;;;30.65;19.73;;;2.10;99.90;;;;;;5066231;28;20041;-40
2023/01/19 05:39:20;;;;;;;32.08;20.33;;;2.20;99.90;;;;;;5062734;28;20111;-40
2023/01/19 05:41:46;;;;;;;32.28;18.55;;;2.20;99.90;;;;;;5040102;28;20129;-40
2023/01/19 05:44:12;;;;;;;22.48;14.13;;;2.20;99.90;;;;;;5067887;28;20043;-39
2023/01/19 05:46:39;;;;;;;21.35;13.00;;;2.30;99.90;;;;;;5071045;28;20082;-40
2023/01/19 05:49:10;;;;;;;21.05;11.80;;;2.40;99.90;;;;;;5043567;28;20468;-41
2023/01/19 05:51:44;;;;;;;16.77;9.10;;;2.40;99.90;;;;;;5069051;28;20530;-41
2023/01/19 05:54:16;;;;;;;13.15;6.75;;;2.50;99.90;;;;;;5069988;28;20040;-42
2023/01/19 05:56:42;;;;;;;12.80;6.03;;;2.60;99.90;;;;;;5073264;28;20040;-40
2023/01/19 05:59:08;;;;;;;9.43;4.43;;;2.70;99.90;;;;;;5065532;28;20035;-41
2023/01/19 06:01:36;;;;;;;10.05;4.18;;;2.70;99.90;;;;;;5071900;28;20051;-40
2023/01/19 06:04:02;;;;;;;11.23;4.00;;;2.70;99.90;;;;;;5060479;28;20041;-40
2023/01/19 06:06:27;;;;;;;11.20;3.35;;;2.80;99.90;;;;;;5069469;28;20086;-41
2023/01/19 06:08:53;;;;;;;7.88;2.85;;;2.80;99.90;;;;;;5067621;28;20067;-42
2023/01/19 06:11:19;;;;;;;11.73;3.00;;;2.80;99.90;;;;;;5071355;28;20110;-40
2023/01/19 06:13:46;;;;;;;6.68;2.67;;;2.80;99.90;;;;;;5054252;28;20097;-40
2023/01/19 06:16:13;;;;;;;8.07;2.25;;;2.80;99.90;;;;;;5067690;28;20035;-40
2023/01/19 06:18:39;;;;;;;8.45;3.13;;;2.80;99.90;;;;;;5072196;28;20079;-41
2023/01/19 06:21:07;;;;;;;5.05;2.33;;;2.80;99.90;;;;;;5054449;28;20449;-41
2023/01/19 06:23:34;;;;;;;7.72;2.55;;;2.80;99.90;;;;;;5068779;28;20067;-40
2023/01/19 06:26:01;;;;;;;6.40;1.83;;;2.80;99.90;;;;;;5066518;28;20503;-42
2023/01/19 06:28:26;;;;;;;9.25;1.80;;;2.80;99.90;;;;;;5071060;28;20043;-41
2023/01/19 06:30:54;;;;;;;4.60;1.63;;;2.80;99.90;;;;;;5072542;28;20401;-41
2023/01/19 06:33:20;;;;;;;7.60;1.70;;;2.80;99.90;;;;;;5050116;28;20477;-37
2023/01/19 06:35:48;;;;;;;6.65;1.88;;;2.80;99.90;;;;;;5057783;28;20035;-37
2023/01/19 06:38:17;;;;;;;3.35;1.20;;;2.80;99.90;;;;;;5068027;28;20037;-39
2023/01/19 06:40:43;;;;;;;3.40;1.38;;;2.70;99.90;;;;;;5074609;28;20844;-39
2023/01/19 06:43:10;;;;;;;9.20;2.25;;;2.80;99.90;;;;;;5073348;28;20075;-39
2023/01/19 06:45:38;;;;;;;4.45;1.23;;;2.80;99.90;;;;;;5092687;28;20043;-39
2023/01/19 06:48:04;;;;;;;3.67;1.10;;;2.70;99.90;;;;;;5074333;28;20077;-40
2023/01/19 06:50:29;;;;;;;4.80;1.27;;;2.70;99.90;;;;;;5068747;28;20122;-39
2023/01/19 06:52:55;;;;;;;5.97;1.13;;;2.70;99.90;;;;;;5072688;28;20154;-40
2023/01/19 06:55:21;;;;;;;3.75;1.52;;;2.60;99.90;;;;;;5074461;28;20032;-40
2023/01/19 06:57:47;;;;;;;4.68;1.40;;;2.60;99.90;;;;;;5073905;28;20115;-40
2023/01/19 07:00:13;;;;;;;6.28;1.40;;;2.60;99.90;;;;;;5070476;28;20036;-40
2023/01/19 07:02:42;;;;;;;3.95;1.27;;;2.50;99.90;;;;;;5068464;28;20504;-40
2023/01/19 07:05:10;;;;;;;7.03;1.40;;;2.50;99.90;;;;;;5074671;28;20032;-39
2023/01/19 07:07:38;;;;;;;6.57;1.40;;;2.50;99.90;;;;;;5075630;28;20114;-38
2023/01/19 07:10:06;;;;;;;5.28;1.35;;;2.50;99.90;;;;;;5075375;28;20036;-38
2023/01/19 07:12:33;;;;;;;6.03;1.33;;;2.50;99.90;;;;;;5074671;28;20051;-38
2023/01/19 07:14:59;;;;;;;3.78;1.60;;;2.50;99.90;;;;;;5074868;28;20119;-38
2023/01/19 07:17:24;;;;;;;12.20;2.20;;;2.60;99.90;;;;;;5074853;28;20118;-38
2023/01/19 07:19:51;;;;;;;5.30;1.23;;;2.60;99.90;;;;;;5074269;28;20365;-38
2023/01/19 07:22:17;;;;;;;7.45;1.83;;;2.60;99.90;;;;;;5074890;28;20040;-38
2023/01/19 07:24:42;;;;;;;8.43;1.55;;;2.60;99.90;;;;;;5046134;28;20466;-38
2023/01/19 07:27:10;;;;;;;4.25;1.15;;;2.60;99.90;;;;;;5054864;28;20037;-38
2023/01/19 07:29:36;;;;;;;6.03;1.88;;;2.60;99.90;;;;;;5054906;28;20040;-38
2023/01/19 07:32:03;;;;;;;4.50;1.42;;;2.60;99.90;;;;;;5059993;28;20489;-40
2023/01/19 07:34:28;;;;;;;13.75;1.95;;;2.60;99.90;;;;;;5050211;28;20048;-40
2023/01/19 07:36:57;;;;;;;6.47;1.60;;;2.70;99.90;;;;;;5054911;28;20124;-43
2023/01/19 07:39:23;;;;;;;6.47;1.60;;;2.70;99.90;;;;;;5066846;28;20044;-40
2023/01/19 07:41:49;;;;;;;7.15;1.65;;;2.70;99.90;;;;;;5070742;28;20062;-40
2023/01/19 07:44:15;;;;;;;7.13;1.88;;;2.70;99.90;;;;;;5069184;28;20041;-40
2023/01/19 07:46:42;;;;;;;11.32;1.98;;;2.80;99.90;;;;;;5071674;28;20035;-40
2023/01/19 07:49:08;;;;;;;11.13;2.00;;;2.80;99.90;;;;;;5073018;28;20040;-40
2023/01/19 07:51:35;;;;;;;8.82;1.88;;;2.80;99.90;;;;;;5065762;28;20162;-40
2023/01/19 07:54:00;;;;;;;8.80;1.92;;;2.90;99.90;;;;;;5074134;28;20044;-40
2023/01/19 07:56:28;;;;;;;14.75;2.15;;;2.90;99.90;;;;;;5074179;28;20035;-40
2023/01/19 07:58:54;;;;;;;9.77;2.25;;;2.80;99.90;;;;;;5076573;28;20051;-38
2023/01/19 08:01:20;;;;;;;13.02;2.00;;;2.80;99.90;;;;;;5073115;28;20033;-38
2023/01/19 08:03:49;;;;;;;6.00;2.20;;;2.90;99.90;;;;;;5069027;28;20393;-38
2023/01/19 08:06:25;;;;;;;12.57;2.22;;;2.90;99.90;;;;;;5075850;28;20048;-39
2023/01/19 08:08:50;;;;;;;11.15;2.28;;;2.90;99.90;;;;;;5075383;28;20032;-39
2023/01/19 08:11:16;;;;;;;7.43;1.98;;;2.90;99.90;;;;;;5076553;28;20042;-38
2023/01/19 08:13:42;;;;;;;15.88;2.10;;;2.90;99.90;;;;;;5069749;28;20492;-39
2023/01/19 08:16:08;;;;;;;15.52;2.08;;;2.90;99.90;;;;;;5071006;28;20068;-39
2023/01/19 08:18:34;;;;;;;8.60;2.40;;;2.90;99.90;;;;;;5071416;28;20569;-39
2023/01/19 08:21:00;;;;;;;11.63;2.10;;;2.90;99.90;;;;;;5073667;28;20586;-39
2023/01/19 08:23:26;;;;;;;12.50;2.38;;;2.80;99.90;;;;;;5045530;28;20044;-39
2023/01/19 08:25:53;;;;;;;15.57;3.60;;;2.80;99.90;;;;;;5062999;28;20371;-39
2023/01/19 08:28:19;;;;;;;22.35;6.50;;;2.80;99.90;;;;;;5075680;28;20036;-39
2023/01/19 08:30:52;;;;;;;13.57;3.85;;;2.80;99.90;;;;;;5071314;28;20157;-39
2023/01/19 08:33:19;;;;;;;13.88;3.30;;;2.80;99.90;;;;;;5060965;28;20039;-39
2023/01/19 08:35:49;;;;;;;7.80;2.30;;;2.80;99.90;;;;;;5076621;28;20036;-39
2023/01/19 08:38:15;;;;;;;5.90;2.10;;;2.80;99.90;;;;;;5069368;28;20036;-40
2023/01/19 08:40:42;;;;;;;11.90;2.38;;;2.90;99.90;;;;;;5075647;28;20485;-39
2023/01/19 08:43:12;;;;;;;10.20;2.15;;;2.90;99.90;;;;;;5069996;28;20079;-40
2023/01/19 08:45:45;;;;;;;8.25;2.03;;;3.00;99.90;;;;;;5077724;28;20063;-40
2023/01/19 08:48:12;;;;;;;8.25;2.20;;;3.00;99.90;;;;;;5075192;28;20059;-40
2023/01/19 08:50:38;;;;;;;10.88;1.90;;;3.10;99.90;;;;;;5066943;28;20036;-40
2023/01/19 08:53:05;;;;;;;8.02;1.88;;;3.10;99.90;;;;;;5060337;28;20042;-39
2023/01/19 08:55:33;;;;;;;7.30;2.13;;;3.20;99.90;;;;;;5064549;28;20044;-39
2023/01/19 08:58:00;;;;;;;12.63;2.55;;;3.30;99.90;;;;;;5063313;28;20058;-38
2023/01/19 09:00:26;;;;;;;9.90;2.03;;;3.30;99.90;;;;;;5085436;28;20036;-39
2023/01/19 09:02:53;;;;;;;12.77;2.45;;;3.40;99.90;;;;;;5065365;28;20452;-39
2023/01/19 09:05:20;;;;;;;9.23;2.28;;;3.50;99.90;;;;;;5071971;28;20044;-39
2023/01/19 09:07:47;;;;;;;11.52;2.30;;;3.60;99.90;;;;;;5072678;28;20437;-39
2023/01/19 09:10:13;;;;;;;10.73;2.30;;;3.60;99.90;;;;;;5076416;28;20090;-41
2023/01/19 09:12:40;;;;;;;10.88;2.03;;;3.60;99.90;;;;;;5075898;28;20507;-41
2023/01/19 09:15:06;;;;;;;9.77;1.58;;;3.60;99.90;;;;;;5066801;28;20036;-40
2023/01/19 09:17:32;;;;;;;11.60;2.20;;;3.70;99.90;;;;;;5075657;28;20040;-41
2023/01/19 09:19:58;;;;;;;7.95;1.90;;;3.70;99.90;;;;;;5068833;28;20386;-40
2023/01/19 09:22:25;;;;;;;9.35;2.22;;;3.70;99.90;;;;;;5077138;28;20131;-40
2023/01/19 09:24:53;;;;;;;7.80;1.88;;;3.60;99.90;;;;;;5066575;28;20118;-40
2023/01/19 09:27:43;;;;;;;11.52;2.17;;;3.70;99.90;;;;;;5083241;28;20028;-40
2023/01/19 09:30:19;;;;;;;9.80;2.17;;;3.60;99.90;;;;;;5085864;28;20040;-40
2023/01/19 09:32:45;;;;;;;8.80;1.63;;;3.70;99.90;;;;;;5071517;28;20043;-41
2023/01/19 09:35:11;;;;;;;16.67;2.33;;;3.70;99.90;;;;;;5062453;28;20483;-40
2023/01/19 09:37:37;;;;;;;11.93;2.22;;;3.70;99.90;;;;;;5078501;28;20079;-40
2023/01/19 09:40:04;;;;;;;8.95;1.90;;;3.70;99.90;;;;;;5063334;28;20731;-41
2023/01/19 09:42:47;;;;;;;8.93;2.25;;;4.00;99.90;;;;;;5066875;28;20032;-41
2023/01/19 09:45:24;;;;;;;11.48;2.22;;;4.70;99.90;;;;;;5075792;28;20100;-41
2023/01/19 09:47:53;;;;;;;13.32;3.33;;;5.30;99.90;;;;;;5091786;28;20044;-39
2023/01/19 09:50:35;;;;;;;11.43;2.50;;;5.70;99.90;;;;;;5092296;28;20079;-39
2023/01/19 09:53:43;;;;;;;10.25;2.53;;;5.80;99.90;;;;;;5084551;28;20094;-39
2023/01/19 09:56:13;;;;;;;11.70;1.83;;;5.70;99.90;;;;;;5001102;28;20050;-38
2023/01/19 09:58:40;;;;;;;5.30;1.95;;;5.90;99.90;;;;;;5077297;28;20044;-38
2023/01/19 10:01:33;;;;;;;14.13;2.45;;;6.30;99.90;;;;;;5094728;28;20097;-39
2023/01/19 10:04:27;;;;;;;10.45;2.33;;;6.60;99.90;;;;;;5092618;28;20476;-41
2023/01/19 10:07:22;;;;;;;8.18;1.73;;;7.00;99.90;;;;;;5070168;28;20057;-41
2023/01/19 10:09:47;;;;;;;;;;;7.30;99.90;;;;;;5059912;28;20063;-38
2023/01/19 10:12:45;;;;;;;7.95;1.90;;;7.40;99.90;;;;;;5072061;28;20315;-38
2023/01/19 10:19:11;;;;;;;7.88;1.90;;;8.10;99.90;;;;;;5071948;28;20473;-38
2023/01/19 10:21:42;;;;;;;10.55;2.78;;;8.80;99.90;;;;;;5091359;28;20043;-38
2023/01/19 10:24:34;;;;;;;10.00;2.08;;;9.00;99.90;;;;;;5071655;28;20043;-37
2023/01/19 10:27:02;;;;;;;6.82;1.70;;;9.40;99.90;;;;;;5061653;28;20123;-36
2023/01/19 10:29:37;;;;;;;7.95;2.17;;;9.80;99.90;;;;;;5070174;28;20039;-37
2023/01/19 10:32:22;;;;;;;9.82;2.08;;;9.80;99.90;;;;;;5088656;28;20032;-38
2023/01/19 10:34:49;;;;;;;7.18;1.85;;;9.90;99.90;;;;;;5087414;28;20041;-38
2023/01/19 10:37:29;;;;;;;7.32;1.77;;;10.10;99.90;;;;;;5074242;28;20075;-38
2023/01/19 10:40:07;;;;;;;8.88;2.00;;;9.90;99.90;;;;;;5067772;28;20041;-38
2023/01/19 10:42:34;;;;;;;9.10;1.90;;;10.10;99.90;;;;;;5080001;28;20039;-38
2023/01/19 10:45:00;;;;;;;7.80;1.77;;;10.10;99.90;;;;;;5072781;28;20036;-39
2023/01/19 10:47:33;;;;;;;8.07;1.63;;;10.10;99.90;;;;;;5076034;28;20619;-40
2023/01/19 10:50:19;;;;;;;8.15;1.83;;;10.20;99.90;;;;;;5075332;28;20515;-40
2023/01/19 10:52:50;;;;;;;6.95;1.80;;;10.20;99.90;;;;;;5073755;28;20047;-39
2023/01/19 10:55:23;;;;;;;9.00;2.05;;;10.30;99.90;;;;;;5065351;28;20446;-39
2023/01/19 10:57:50;;;;;;;;;;;10.50;99.90;;;;;;5073797;28;20075;-39
2023/01/19 11:00:36;;;;;;;6.90;1.88;;;10.60;99.90;;;;;;5093733;28;19968;-39
2023/01/19 11:03:04;;;;;;;8.88;2.03;;;11.20;99.90;;;;;;5075134;28;20046;-39
2023/01/19 11:05:32;;;;;;;8.15;2.00;;;11.20;99.90;;;;;;5075610;28;20032;-39
2023/01/19 11:07:59;;;;;;;9.52;2.03;;;11.10;99.90;;;;;;5093827;28;20044;-39
2023/01/19 11:10:29;;;;;;;5.50;1.75;;;11.30;99.90;;;;;;5066377;28;20401;-42
2023/01/19 11:13:07;;;;;;;8.88;1.92;;;11.60;99.90;;;;;;5063064;28;20115;-43
2023/01/19 12:21:59;;;;;;;11.10;1.45;;;13.50;70.00;;;;;;5090564;28;20046;-39
2023/01/19 12:24:45;;;;;;;4.90;1.30;;;13.10;70.80;;;;;;5077471;28;20055;-38
2023/01/19 12:27:31;;;;;;;6.97;1.98;;;13.00;99.90;;;;;;5094652;28;20047;-38
2023/01/19 12:29:57;;;;;;;5.18;1.20;;;13.20;95.00;;;;;;5095189;28;20040;-38
2023/01/19 12:32:36;;;;;;;7.13;1.40;;;12.90;99.90;;;;;;5077676;28;20078;-38
2023/01/19 12:35:02;;;;;;;5.75;1.10;;;12.20;99.90;;;;;;5077108;28;20039;-38
2023/01/19 12:37:28;;;;;;;4.45;1.23;;;11.80;99.90;;;;;;5077390;28;20044;-38
2023/01/19 12:39:55;;;;;;;4.78;1.08;;;11.10;99.90;;;;;;5076832;28;20068;-38
2023/01/19 12:46:49;;;;;;;4.15;0.93;;;9.00;99.90;;;;;;5086645;28;20059;-38
2023/01/19 13:08:08;;;;;;;5.85;1.00;;;8.00;99.90;;;;;;5035420;28;20129;-37
2023/01/19 13:11:00;;;;;;;4.10;1.00;;;8.70;99.90;;;;;;5038294;28;20048;-39
2023/01/19 13:13:37;;;;;;;4.03;1.10;;;9.10;99.90;;;;;;5076098;28;20046;-37
2023/01/19 13:16:45;;;;;;;2.25;0.98;;;8.90;99.90;;;;;;5082928;28;20051;-39
2023/01/19 13:19:51;;;;;;;5.72;1.33;;;8.60;99.90;;;;;;5091957;28;20501;-40
2023/01/19 13:22:48;;;;;;;5.47;1.02;;;7.80;99.90;;;;;;5081559;28;20044;-38
2023/01/19 13:25:32;;;;;;;4.07;0.93;;;7.60;99.90;;;;;;5079050;28;20072;-37
2023/01/19 13:27:59;;;;;;;6.03;1.00;;;7.80;99.90;;;;;;5079562;28;20040;-37
2023/01/19 13:30:28;;;;;;;4.78;1.15;;;8.00;99.90;;;;;;5097367;28;20040;-37
2023/01/19 13:33:16;;;;;;;5.32;1.60;;;8.00;99.90;;;;;;5097676;28;20036;-38
2023/01/19 13:35:50;;;;;;;4.20;0.98;;;8.00;99.90;;;;;;5078711;28;20039;-37
2023/01/19 13:38:16;;;;;;;5.75;1.60;;;7.80;99.90;;;;;;5061705;28;20048;-37
2023/01/19 13:40:43;;;;;;;5.40;1.40;;;7.60;99.90;;;;;;5078357;28;20173;-37
2023/01/19 13:43:21;;;;;;;8.95;2.45;;;7.50;99.90;;;;;;5078885;28;20090;-37
2023/01/19 13:45:49;;;;;;;3.22;1.60;;;7.40;99.90;;;;;;5073399;28;20044;-41
2023/01/19 13:48:21;;;;;;;7.63;2.00;;;7.50;99.90;;;;;;5055628;28;20040;-41
2023/01/19 13:50:58;;;;;;;16.55;7.57;;;7.50;99.90;;;;;;5063557;28;20032;-42
2023/01/19 13:53:24;;;;;;;7.07;1.17;;;7.60;99.90;;;;;;5074143;28;20036;-40
2023/01/19 13:56:21;;;;;;;3.65;1.15;;;7.30;99.90;;;;;;5076571;28;20384;-41
2023/01/19 13:58:58;;;;;;;5.57;1.40;;;6.90;99.90;;;;;;5057491;28;20123;-40
2023/01/19 14:01:24;;;;;;;4.68;0.98;;;6.60;99.90;;;;;;5094512;28;20032;-42
2023/01/19 14:03:53;;;;;;;5.15;1.67;;;6.40;99.90;;;;;;5068213;28;20033;-40
2023/01/19 14:06:39;;;;;;;3.72;1.30;;;6.20;99.90;;;;;;5060679;28;20036;-42
2023/01/19 14:09:06;;;;;;;4.95;0.98;;;6.10;99.90;;;;;;5076647;28;20040;-40
2023/01/19 14:11:32;;;;;;;5.15;1.10;;;6.00;99.90;;;;;;5074719;28;20028;-41
2023/01/19 14:13:57;;;;;;;4.78;1.25;;;6.00;99.90;;;;;;5076533;28;20107;-40
2023/01/19 14:16:23;;;;;;;3.50;1.17;;;6.10;99.90;;;;;;5073551;28;20044;-45
2023/01/19 14:18:59;;;;;;;3.35;0.80;;;6.10;99.90;;;;;;5057511;28;20049;-40
2023/01/19 14:21:37;;;;;;;5.95;1.00;;;6.10;99.90;;;;;;5072780;28;20075;-40
2023/01/19 14:24:16;;;;;;;3.17;0.90;;;5.90;99.90;;;;;;5076240;28;20043;-40
2023/01/19 14:26:47;;;;;;;5.20;1.23;;;5.80;99.90;;;;;;5069637;28;20501;-41
2023/01/19 14:29:34;;;;;;;2.78;1.00;;;5.70;99.90;;;;;;5066652;28;20097;-42
2023/01/19 14:32:01;;;;;;;3.25;1.50;;;5.70;99.90;;;;;;5076884;28;20093;-39
2023/01/19 14:35:03;;;;;;;3.42;1.00;;;5.60;99.90;;;;;;5079759;28;20037;-39
2023/01/19 14:37:34;;;;;;;5.10;1.17;;;5.50;99.90;;;;;;5010945;28;20058;-39
2023/01/19 14:40:14;;;;;;;1.75;0.90;;;5.40;99.90;;;;;;5071076;28;20043;-39
2023/01/19 14:43:07;;;;;;;3.40;1.15;;;5.40;99.90;;;;;;5066302;28;20131;-38
2023/01/19 14:45:36;;;;;;;2.90;1.00;;;5.40;99.90;;;;;;5082224;28;20385;-38
2023/01/19 14:48:12;;;;;;;4.40;1.25;;;5.50;99.90;;;;;;5079236;28;20097;-39